Avon, New Jersey
Current Conditions -  °F | °C
As of 5:55 AM on Wednesday 22 Oct 2014 (Local Time) from KBLM Reporting Station
Thunderstorm Thunderstorm  
Wind Chill: 54°   Ceiling: 7000
Heat Index: 54°   Visibility: 10mi
Dew Point: 48°   Wind: 15mph
Humidity: 82%   Direction: 360°N
Pressure: 29.84"   Gusts: 23mph
Location:  40.1917°N, 74.0159°W
Report Text: KBLM 220955Z AUTO 36013G20KT 10SM VCTS OVC070 12/09 A2984 RMK AO1 LTG DSNT NE TSB07E39B40 P0017
Loading
Personal Weather Stations






























Interactive Weather Map New forecast layout! Learn more

10-Day Weather Forecast

Advertisements
Track Severe Weather on mobile